createdAt,value
2018-12-15T20:38:48.854Z,51.80
2018-12-15T20:41:22.013Z,61.43
2018-12-15T20:43:55.087Z,62.10
2018-12-15T20:46:28.992Z,60.57
2018-12-15T20:49:02.081Z,57.07
2018-12-15T20:51:35.135Z,60.20
2018-12-15T20:54:08.197Z,60.17
2018-12-15T20:56:41.237Z,63.30
2018-12-15T20:59:14.393Z,61.57
2018-12-15T21:01:47.480Z,61.57
2018-12-15T21:04:20.632Z,62.07
2018-12-15T21:06:53.705Z,63.43
2018-12-15T21:09:26.793Z,68.03
2018-12-15T21:11:59.851Z,62.90
2018-12-15T21:14:32.947Z,63.07
2018-12-15T21:17:06.004Z,67.37
2018-12-15T21:19:39.182Z,71.50
2018-12-15T21:22:12.439Z,75.90
2018-12-15T21:24:45.630Z,67.83
2018-12-15T21:27:18.691Z,70.07
2018-12-15T21:29:51.841Z,66.70
2018-12-15T21:32:24.976Z,68.77
2018-12-15T21:34:58.090Z,70.67
2018-12-15T21:37:31.233Z,73.13
2018-12-15T21:40:05.043Z,67.80
2018-12-15T21:42:38.196Z,64.60
2018-12-15T21:45:11.489Z,73.93
2018-12-15T21:47:44.805Z,69.60
2018-12-15T21:50:17.886Z,76.20
2018-12-15T21:52:50.959Z,71.37
2018-12-15T21:55:24.057Z,73.40
2018-12-15T21:57:57.712Z,65.87
2018-12-15T22:00:30.793Z,72.93
2018-12-15T22:03:05.763Z,72.80
2018-12-15T22:05:39.050Z,70.00
2018-12-15T22:08:12.189Z,75.40
2018-12-15T22:10:45.280Z,73.07
2018-12-15T22:13:18.364Z,75.50
2018-12-15T22:15:51.445Z,71.30
2018-12-15T22:18:24.524Z,69.43
2018-12-15T22:20:58.030Z,75.03
2018-12-15T22:23:31.152Z,74.03
2018-12-15T22:26:04.837Z,72.53
2018-12-15T22:28:38.047Z,72.30
2018-12-15T22:31:11.281Z,74.50
2018-12-15T22:33:44.417Z,75.47
2018-12-15T22:36:17.667Z,75.47
2018-12-15T22:38:50.723Z,77.13
2018-12-15T22:41:23.885Z,73.93
2018-12-15T22:43:57.106Z,72.70
2018-12-15T22:46:30.293Z,71.60
2018-12-15T22:49:03.601Z,72.97
2018-12-15T22:51:37.249Z,71.07
2018-12-15T22:54:10.535Z,70.23
2018-12-15T22:56:43.625Z,77.00
2018-12-15T22:59:16.697Z,70.47
2018-12-15T23:01:49.849Z,78.17
2018-12-15T23:04:23.064Z,76.13
2018-12-15T23:06:56.167Z,76.77
2018-12-15T23:09:29.253Z,72.90
2018-12-15T23:12:02.343Z,72.87
2018-12-15T23:14:35.401Z,71.03
2018-12-15T23:17:08.498Z,79.07
2018-12-15T23:19:42.025Z,79.77
2018-12-15T23:22:16.458Z,74.37
2018-12-15T23:24:49.993Z,75.87
2018-12-15T23:27:23.455Z,76.30
2018-12-15T23:29:56.837Z,73.67
2018-12-15T23:32:29.932Z,77.27
2018-12-15T23:35:02.974Z,72.97
2018-12-15T23:37:36.063Z,79.37
2018-12-15T23:40:09.125Z,76.13
2018-12-15T23:42:42.207Z,75.70
2018-12-15T23:45:15.294Z,74.00
2018-12-15T23:47:48.381Z,73.17
2018-12-15T23:50:21.425Z,74.13
2018-12-15T23:52:54.501Z,68.50
2018-12-15T23:55:27.779Z,67.33
2018-12-15T23:58:00.908Z,70.23
